Flag for USA

Past Weather in 42°11'51.6"N, 88°12'43.3"W, USA — Yesterday and Last 2 Weeks

Currently: 26 °F. Partly sunny. (Weather station: Chicago Midway Airport, USA). See more current weather

Past Weather in 42°11'51.6"N, 88°12'43.3"W — Graph

°F

42°11'51.6"N, 88°12'43.3"W Temperature Yesterday

Maximum temperature yesterday: 59 °F (at 12:53 pm)
Minimum temperature yesterday: 35 °F (at 11:53 pm)
Average temperature yesterday: 48 °F

High & Low Weather Summary for the Past Weeks

 TemperatureHumidityPressure
High59 °F (Nov 29, 12:53 pm)92% (Nov 15, 9:37 am)30.46 "Hg (Nov 15, 9:37 am)
Low13 °F (Nov 20, 5:53 am)27% (Nov 26, 12:53 pm)29.45 "Hg (Nov 27, 9:53 am)
Average37 °F68%30.06 "Hg
* Reported Nov 15 9:37 am — Nov 30 9:53 am, 42°11'51.6"N, 88°12'43.3"W. Weather by CustomWeather, © 2022

Note: Actual official high and low records may vary slightly from our data, if they occured in-between our weather recording intervals... More about our weather records

42°11'51.6"N, 88°12'43.3"W Weather History for the Previous 24 Hours

Scroll right to see more
 ConditionsComfort  
Time TempWeatherWind HumidityBarometerVisibility
9:53 am
Wed, Nov 30
26 °FPartly sunny.23 mph60%30.03 "Hg10 mi
8:53 am25 °FPartly sunny.23 mph66%30.01 "Hg10 mi
7:53 am24 °FScattered clouds.18 mph65%29.97 "Hg10 mi
6:53 am24 °FPassing clouds.24 mph68%29.96 "Hg10 mi
5:53 am25 °FPassing clouds.18 mph66%29.92 "Hg10 mi
4:53 am25 °FPassing clouds.18 mph66%29.88 "Hg10 mi
3:53 am26 °FPassing clouds.18 mph66%29.84 "Hg10 mi
2:53 am28 °FPassing clouds.17 mph64%29.78 "Hg10 mi
2:14 am30 °FPassing clouds.21 mph69%29.73 "Hg10 mi
1:53 am30 °FPassing clouds.24 mph72%29.74 "Hg10 mi
12:53 am34 °FOvercast.18 mph70%29.70 "Hg10 mi
11:53 pm
Tue, Nov 29
35 °FOvercast.24 mph72%29.66 "Hg10 mi
11:25 pm36 °FOvercast.22 mph79%29.64 "Hg10 mi
10:53 pm39 °FOvercast.18 mph82%29.62 "Hg10 mi
10:28 pm40 °FOvercast.18 mph83%29.58 "Hg10 mi
9:53 pm45 °FPassing clouds.28 mph80%29.56 "Hg10 mi
8:53 pm52 °FPassing clouds.14 mph75%29.50 "Hg10 mi
8:31 pm56 °FLight rain. Fog.20 mph87%29.47 "Hg5 mi
8:21 pm56 °FLight rain. Fog.17 mph87%29.47 "Hg2 mi
7:53 pm57 °FLight rain. Fog.21 mph87%29.47 "Hg5 mi
7:35 pm57 °FLight rain. Mostly cloudy.21 mph87%29.47 "Hg9 mi
6:53 pm58 °FMostly cloudy.22 mph81%29.47 "Hg10 mi
4:53 pm58 °FOvercast.16 mph72%29.52 "Hg10 mi
3:53 pm58 °FMostly cloudy.18 mph70%29.53 "Hg10 mi
2:53 pm58 °FMostly cloudy.24 mph67%29.53 "Hg10 mi
1:53 pm58 °FMostly cloudy.20 mph65%29.53 "Hg10 mi
12:53 pm59 °FPartly sunny.23 mph58%29.54 "Hg10 mi
11:53 am57 °FScattered clouds.22 mph62%29.58 "Hg10 mi
Weather by CustomWeather, © 2022

See weather overview